Overton, Nevada
Current Conditions -  °F | °C
As of 2:58 AM on Monday 20 Oct 2014 (Local Time) from KLSV Reporting Station
Clear Clear  
Wind Chill: 62°   Ceiling: Unl
Heat Index: 62°   Visibility: 10mi
Dew Point: 38°   Wind: 2mph
Humidity: 40%   Direction: 40°NE
Pressure: 29.87"   Gusts: NA
Location:  36.54°N, 114.45°W
Report Text: KLSV 200958Z AUTO 04002KT 10SM CLR 17/03 A2987 RMK AO2 SLP096 T01680031 $
Loading
Personal Weather Stations






























Interactive Weather Map
Tropical Storm Tracking
New forecast layout! Learn more

10-Day Weather Forecast

Advertisements
Track Severe Weather on mobile